Clare Christine — V2DT7 — position and weather

sailwx.info

Track history (hours):
 
Tides and Currents Weather Stations Pressure Air Temp Water Temp Dewpoint Dewpoint Depression Visibility Wind Speed Wind Dir Waves Ship Positions

Clare Christine

Last reported at 2016-Jul-01 15:08 UTC. Time now 2016-Jul-02 00:25 UTC.
Position N 58°43' W 004°30'.

Length 89 m; draft 4.9 m.

Type: Cargo ship. MMSI: 305379000.

Date/timePositionNaut miles runAvg speedWind from/ knotsBaromVisibWave heightAir tempDewpointWater temp
2016-Jul-01 15:08N 58°43' W 004°30'6 9.7
2016-Jul-01 14:33N 58°43' W 004°19'1010.3
2016-Jul-01 13:33N 58°43' W 003°59'1110.9
2016-Jul-01 12:33N 58°43' W 003°38'1312.6
2016-Jul-01 11:33N 58°43' W 003°14'1414.3
2016-Jul-01 10:33N 58°37' W 002°49'1111.1
2016-Jul-01 09:33N 58°33' W 002°29'265 9.1
2016-Jun-30 04:18N 57°55' E 005°48'6 8.2
2016-Jun-30 03:33N 57°55' E 005°60'10 9.5
2016-Jun-30 02:33N 57°52' E 006°17'1010.2
2016-Jun-30 01:33N 57°49' E 006°36'1111.0
2016-Jun-30 00:33N 57°48' E 006°56'11310.3
2016-Jun-29 13:33N 57°48' E 010°29'1010.1
2016-Jun-29 12:33N 57°46' E 010°47'1110.7
2016-Jun-29 11:33N 57°39' E 011°03'1110.6
2016-Jun-29 10:33N 57°32' E 011°17'1010.3
2016-Jun-29 09:33N 57°24' E 011°29'1211.5
2016-Jun-29 08:34N 57°13' E 011°36'1111.3
2016-Jun-29 07:33N 57°02' E 011°43'1111.3
2016-Jun-29 06:33N 56°52' E 011°49'1110.9
2016-Jun-29 05:33N 56°42' E 011°56'1110.5
2016-Jun-29 04:33N 56°32' E 012°03'1010.5
2016-Jun-29 03:33N 56°23' E 012°13'1110.7
2016-Jun-29 02:33N 56°14' E 012°24'1110.7
2016-Jun-29 01:33N 56°06' E 012°36'1010.4
2016-Jun-29 00:33N 55°56' E 012°44'1010.0
2016-Jun-28 23:33N 55°46' E 012°42'1010.4
2016-Jun-28 22:33N 55°36' E 012°42'1010.4
2016-Jun-28 21:33N 55°25' E 012°43'9 8.9
2016-Jun-28 20:33N 55°17' E 012°48'1010.2
2016-Jun-28 19:33N 55°15' E 013°05'1010.2
2016-Jun-28 18:33N 55°15' E 013°23'1010.2
2016-Jun-28 17:33N 55°14' E 013°41'1010.3
2016-Jun-28 16:33N 55°14' E 013°59'1010.0
2016-Jun-28 15:33N 55°14' E 014°16'1010.0
2016-Jun-28 14:33N 55°21' E 014°29'9 9.0
2016-Jun-28 13:33N 55°25' E 014°43'1010.4
2016-Jun-28 12:33N 55°24' E 015°01'1110.8
2016-Jun-28 11:33N 55°22' E 015°20'1110.9
2016-Jun-28 10:31N 55°21' E 015°40'4410.3
2016-Jun-28 06:14N 55°14' E 016°56'1810.4
2016-Jun-28 04:33N 55°09' E 017°26'1110.3
2016-Jun-28 03:28N 55°07' E 017°44'910.3
2016-Jun-28 02:33N 55°05' E 018°00'1110.5
2016-Jun-28 01:33N 55°02' E 018°18'1110.5
2016-Jun-28 00:33N 54°58' E 018°35'1010.4
2016-Jun-27 23:33N 54°51' E 018°49'9 9.5
2016-Jun-27 22:33N 54°43' E 018°58'10 9.7
2016-Jun-27 21:33N 54°34' E 018°52'10 9.6
2016-Jun-27 20:33N 54°32' E 018°36'3 2.5
2016-Jun-27 19:33N 54°32' E 018°31'0 0.0
2016-Jun-27 18:33N 54°32' E 018°31'0 0.0
2016-Jun-27 17:33N 54°32' E 018°31'0 0.0
2016-Jun-27 16:33N 54°32' E 018°31'0 0.0
2016-Jun-27 15:33N 54°32' E 018°31'0 0.0
2016-Jun-27 14:33N 54°32' E 018°31'0 0.0
2016-Jun-27 13:33N 54°32' E 018°31'0 0.0
2016-Jun-27 12:33N 54°32' E 018°31'0 0.0
2016-Jun-27 11:33N 54°32' E 018°31'0 0.0
2016-Jun-27 10:33N 54°32' E 018°31'0 0.0
2016-Jun-27 09:33N 54°32' E 018°31'0 0.0
2016-Jun-27 08:33N 54°32' E 018°31'0 0.0
2016-Jun-27 07:33N 54°32' E 018°31'0 0.0
2016-Jun-27 06:33N 54°32' E 018°31'0 0.0
2016-Jun-27 05:33N 54°32' E 018°31'0 0.0
2016-Jun-27 04:33N 54°32' E 018°31'0 0.0
2016-Jun-27 03:33N 54°32' E 018°31'0 0.0
2016-Jun-27 02:33N 54°32' E 018°31'0 0.0
2016-Jun-27 01:33N 54°32' E 018°31'0 0.0
2016-Jun-27 00:33N 54°32' E 018°31'0 0.0
2016-Jun-26 23:33N 54°32' E 018°31'0 0.0
2016-Jun-26 22:33N 54°32' E 018°31'0 0.0
2016-Jun-26 21:33N 54°32' E 018°31'0 0.0
2016-Jun-26 20:33N 54°32' E 018°31'0 0.0
2016-Jun-26 19:30N 54°32' E 018°31'0 0.0
2016-Jun-26 18:33N 54°32' E 018°31'0 0.0
2016-Jun-26 17:33N 54°32' E 018°31'0 0.0
2016-Jun-26 16:33N 54°32' E 018°31'2 2.5
2016-Jun-26 15:33N 54°32' E 018°36'10 9.6
2016-Jun-26 14:33N 54°35' E 018°52'1111.3
2016-Jun-26 13:33N 54°45' E 018°58'1111.4
2016-Jun-26 12:33N 54°52' E 018°43'1111.3
2016-Jun-26 11:33N 54°59' E 018°27'1211.3
2016-Jun-26 10:32N 55°03' E 018°08'8111.4
2016-Jun-26 03:27N 55°19' E 015°49'1010.8
2016-Jun-26 02:33N 55°20' E 015°32'1110.8
2016-Jun-26 01:34N 55°21' E 015°14'1111.1
2016-Jun-26 00:33N 55°22' E 014°54'1010.4
2016-Jun-25 23:33N 55°21' E 014°36'1111.3
2016-Jun-25 22:33N 55°12' E 014°22'1010.1
2016-Jun-25 21:33N 55°10' E 014°05'1111.0
2016-Jun-25 20:33N 55°11' E 013°46'1111.0
2016-Jun-25 19:34N 55°13' E 013°27'1110.9
2016-Jun-25 18:33N 55°14' E 013°08'1110.6
2016-Jun-25 17:33N 55°16' E 012°49'9 8.8
2016-Jun-25 16:33N 55°22' E 012°39'1111.4
2016-Jun-25 15:33N 55°34' E 012°42'1111.5
2016-Jun-25 14:33N 55°45' E 012°41'1110.7
2016-Jun-25 13:33N 55°55' E 012°37'10 9.7
2016-Jun-25 12:33N 56°05' E 012°35'1010.4
2016-Jun-25 11:33N 56°11' E 012°20'1111.1
2016-Jun-25 10:33N 56°18' E 012°04'1111.5
2016-Jun-25 09:33N 56°29' E 011°59'1211.7
2016-Jun-25 08:33N 56°40' E 011°55'1111.2
2016-Jun-25 07:33N 56°51' E 011°48'1111.4
2016-Jun-25 06:33N 57°02' E 011°42'1111.3
2016-Jun-25 05:33N 57°12' E 011°34'1010.3
2016-Jun-25 04:33N 57°22' E 011°28'1010.0
2016-Jun-25 03:33N 57°31' E 011°21'1010.2
2016-Jun-25 02:33N 57°40' E 011°11'1010.3
2016-Jun-25 01:33N 57°49' E 011°01'1010.2
2016-Jun-25 00:33N 57°58' E 010°52'1010.2
2016-Jun-24 23:33N 58°06' E 010°42'1010.4
2016-Jun-24 22:33N 58°16' E 010°33'1010.3
2016-Jun-24 21:33N 58°24' E 010°23'1010.2
2016-Jun-24 20:33N 58°33' E 010°14'1010.1
2016-Jun-24 19:32N 58°42' E 010°03'1010.6
2016-Jun-24 18:33N 58°51' E 009°53'1010.0
2016-Jun-24 17:33N 59°01' E 009°46'4 0.3
2016-Jun-24 03:22N 59°03' E 009°40'6 7.6
2016-Jun-24 02:33N 58°58' E 009°47'46 5.1
2016-Jun-23 17:29N 58°22' E 008°52'4 4.1
2016-Jun-23 16:33N 58°20' E 008°47'4 4.0
2016-Jun-23 15:33N 58°17' E 008°42'4 4.0
2016-Jun-23 14:33N 58°14' E 008°37'4 3.6
2016-Jun-23 13:33N 58°11' E 008°32'4 3.7
2016-Jun-23 12:33N 58°08' E 008°28'4 4.2
2016-Jun-23 11:33N 58°05' E 008°23'23 5.2
2016-Jun-23 07:07N 57°56' E 007°43'9 5.5
2016-Jun-23 05:32N 57°56' E 007°26'9 8.8
2016-Jun-23 04:33N 57°56' E 007°10'10 9.9
2016-Jun-23 03:33N 57°56' E 006°51'10 9.8
2016-Jun-23 02:33N 58°01' E 006°35'10 9.8
2016-Jun-23 01:32N 58°07' E 006°20'1010.0
2016-Jun-23 00:33N 58°13' E 006°05'1110.6
2016-Jun-22 23:33N 58°19' E 005°48'1010.5
2016-Jun-22 22:34N 58°28' E 005°40'1010.4
2016-Jun-22 21:33N 58°37' E 005°30'1010.1
2016-Jun-22 20:33N 58°46' E 005°22'9 8.7
2016-Jun-22 19:34N 58°53' E 005°31'9 9.4
2016-Jun-22 18:34N 59°03' E 005°35'1 1.4
2016-Jun-22 17:33N 59°01' E 005°37'0 0.0
2016-Jun-22 16:33N 59°01' E 005°37'0 0.0
2016-Jun-22 15:33N 59°01' E 005°37'0 0.0
2016-Jun-22 14:33N 59°01' E 005°37'0 0.0
2016-Jun-22 13:33N 59°01' E 005°37'0 0.0
2016-Jun-22 12:33N 59°01' E 005°37'0 0.0
2016-Jun-22 11:33N 59°01' E 005°37'0 0.0
2016-Jun-22 10:33N 59°01' E 005°37'0 0.0
2016-Jun-22 09:33N 59°01' E 005°37'0 0.0
2016-Jun-22 08:33N 59°01' E 005°37'0 0.0
2016-Jun-22 07:33N 59°01' E 005°37'0 0.0
2016-Jun-22 06:33N 59°01' E 005°37'0 0.0
2016-Jun-22 05:33N 59°01' E 005°37'0 0.0
2016-Jun-22 04:33N 59°01' E 005°37'0 0.0
2016-Jun-22 03:33N 59°01' E 005°37'0 0.0
2016-Jun-22 02:33N 59°01' E 005°37'0 0.0
2016-Jun-22 01:33N 59°01' E 005°37'0 0.0
2016-Jun-22 00:33N 59°01' E 005°37'0 0.0
2016-Jun-21 23:33N 59°01' E 005°37'0 0.0
2016-Jun-21 22:33N 59°01' E 005°37'0 0.0
2016-Jun-21 21:33N 59°01' E 005°37'0 0.0
2016-Jun-21 20:33N 59°01' E 005°37'0 0.0
2016-Jun-21 19:33N 59°01' E 005°37'0 0.0
2016-Jun-21 18:33N 59°01' E 005°37'0 0.0
2016-Jun-21 17:33N 59°01' E 005°37'0 0.0
2016-Jun-21 16:33N 59°01' E 005°37'0 0.0
2016-Jun-21 15:33N 59°01' E 005°37'  
Track history (hours):
 
Tides and Currents Weather Stations Pressure Air Temp Water Temp Dewpoint Dewpoint Depression Visibility Wind Speed Wind Dir Waves Ship Positions

Clare Christine

Last reported at 2016-Jul-01 15:08 UTC. Time now 2016-Jul-02 00:25 UTC.
Position N 58°43' W 004°30'.

Length 89 m; draft 4.9 m.

Type: Cargo ship. MMSI: 305379000.

Date/timePositionNaut miles runAvg speedWind from/ knotsBaromVisibWave heightAir tempDewpointWater temp
2016-Jul-01 15:08N 58°43' W 004°30'6 9.7
2016-Jul-01 14:33N 58°43' W 004°19'1010.3
2016-Jul-01 13:33N 58°43' W 003°59'1110.9
2016-Jul-01 12:33N 58°43' W 003°38'1312.6
2016-Jul-01 11:33N 58°43' W 003°14'1414.3
2016-Jul-01 10:33N 58°37' W 002°49'1111.1
2016-Jul-01 09:33N 58°33' W 002°29'265 9.1
2016-Jun-30 04:18N 57°55' E 005°48'6 8.2
2016-Jun-30 03:33N 57°55' E 005°60'10 9.5
2016-Jun-30 02:33N 57°52' E 006°17'1010.2
2016-Jun-30 01:33N 57°49' E 006°36'1111.0
2016-Jun-30 00:33N 57°48' E 006°56'11310.3
2016-Jun-29 13:33N 57°48' E 010°29'1010.1
2016-Jun-29 12:33N 57°46' E 010°47'1110.7
2016-Jun-29 11:33N 57°39' E 011°03'1110.6
2016-Jun-29 10:33N 57°32' E 011°17'1010.3
2016-Jun-29 09:33N 57°24' E 011°29'1211.5
2016-Jun-29 08:34N 57°13' E 011°36'1111.3
2016-Jun-29 07:33N 57°02' E 011°43'1111.3
2016-Jun-29 06:33N 56°52' E 011°49'1110.9
2016-Jun-29 05:33N 56°42' E 011°56'1110.5
2016-Jun-29 04:33N 56°32' E 012°03'1010.5
2016-Jun-29 03:33N 56°23' E 012°13'1110.7
2016-Jun-29 02:33N 56°14' E 012°24'1110.7
2016-Jun-29 01:33N 56°06' E 012°36'1010.4
2016-Jun-29 00:33N 55°56' E 012°44'1010.0
2016-Jun-28 23:33N 55°46' E 012°42'1010.4
2016-Jun-28 22:33N 55°36' E 012°42'1010.4
2016-Jun-28 21:33N 55°25' E 012°43'9 8.9
2016-Jun-28 20:33N 55°17' E 012°48'1010.2
2016-Jun-28 19:33N 55°15' E 013°05'1010.2
2016-Jun-28 18:33N 55°15' E 013°23'1010.2
2016-Jun-28 17:33N 55°14' E 013°41'1010.3
2016-Jun-28 16:33N 55°14' E 013°59'1010.0
2016-Jun-28 15:33N 55°14' E 014°16'1010.0
2016-Jun-28 14:33N 55°21' E 014°29'9 9.0
2016-Jun-28 13:33N 55°25' E 014°43'1010.4
2016-Jun-28 12:33N 55°24' E 015°01'1110.8
2016-Jun-28 11:33N 55°22' E 015°20'1110.9
2016-Jun-28 10:31N 55°21' E 015°40'4410.3
2016-Jun-28 06:14N 55°14' E 016°56'1810.4
2016-Jun-28 04:33N 55°09' E 017°26'1110.3
2016-Jun-28 03:28N 55°07' E 017°44'910.3
2016-Jun-28 02:33N 55°05' E 018°00'1110.5
2016-Jun-28 01:33N 55°02' E 018°18'1110.5
2016-Jun-28 00:33N 54°58' E 018°35'1010.4
2016-Jun-27 23:33N 54°51' E 018°49'9 9.5
2016-Jun-27 22:33N 54°43' E 018°58'10 9.7
2016-Jun-27 21:33N 54°34' E 018°52'10 9.6
2016-Jun-27 20:33N 54°32' E 018°36'3 2.5
2016-Jun-27 19:33N 54°32' E 018°31'0 0.0
2016-Jun-27 18:33N 54°32' E 018°31'0 0.0
2016-Jun-27 17:33N 54°32' E 018°31'0 0.0
2016-Jun-27 16:33N 54°32' E 018°31'0 0.0
2016-Jun-27 15:33N 54°32' E 018°31'0 0.0
2016-Jun-27 14:33N 54°32' E 018°31'0 0.0
2016-Jun-27 13:33N 54°32' E 018°31'0 0.0
2016-Jun-27 12:33N 54°32' E 018°31'0 0.0
2016-Jun-27 11:33N 54°32' E 018°31'0 0.0
2016-Jun-27 10:33N 54°32' E 018°31'0 0.0
2016-Jun-27 09:33N 54°32' E 018°31'0 0.0
2016-Jun-27 08:33N 54°32' E 018°31'0 0.0
2016-Jun-27 07:33N 54°32' E 018°31'0 0.0
2016-Jun-27 06:33N 54°32' E 018°31'0 0.0
2016-Jun-27 05:33N 54°32' E 018°31'0 0.0
2016-Jun-27 04:33N 54°32' E 018°31'0 0.0
2016-Jun-27 03:33N 54°32' E 018°31'0 0.0
2016-Jun-27 02:33N 54°32' E 018°31'0 0.0
2016-Jun-27 01:33N 54°32' E 018°31'0 0.0
2016-Jun-27 00:33N 54°32' E 018°31'0 0.0
2016-Jun-26 23:33N 54°32' E 018°31'0 0.0
2016-Jun-26 22:33N 54°32' E 018°31'0 0.0
2016-Jun-26 21:33N 54°32' E 018°31'0 0.0
2016-Jun-26 20:33N 54°32' E 018°31'0 0.0
2016-Jun-26 19:30N 54°32' E 018°31'0 0.0
2016-Jun-26 18:33N 54°32' E 018°31'0 0.0
2016-Jun-26 17:33N 54°32' E 018°31'0 0.0
2016-Jun-26 16:33N 54°32' E 018°31'2 2.5
2016-Jun-26 15:33N 54°32' E 018°36'10 9.6
2016-Jun-26 14:33N 54°35' E 018°52'1111.3
2016-Jun-26 13:33N 54°45' E 018°58'1111.4
2016-Jun-26 12:33N 54°52' E 018°43'1111.3
2016-Jun-26 11:33N 54°59' E 018°27'1211.3
2016-Jun-26 10:32N 55°03' E 018°08'8111.4
2016-Jun-26 03:27N 55°19' E 015°49'1010.8
2016-Jun-26 02:33N 55°20' E 015°32'1110.8
2016-Jun-26 01:34N 55°21' E 015°14'1111.1
2016-Jun-26 00:33N 55°22' E 014°54'1010.4
2016-Jun-25 23:33N 55°21' E 014°36'1111.3
2016-Jun-25 22:33N 55°12' E 014°22'1010.1
2016-Jun-25 21:33N 55°10' E 014°05'1111.0
2016-Jun-25 20:33N 55°11' E 013°46'1111.0
2016-Jun-25 19:34N 55°13' E 013°27'1110.9
2016-Jun-25 18:33N 55°14' E 013°08'1110.6
2016-Jun-25 17:33N 55°16' E 012°49'9 8.8
2016-Jun-25 16:33N 55°22' E 012°39'1111.4
2016-Jun-25 15:33N 55°34' E 012°42'1111.5
2016-Jun-25 14:33N 55°45' E 012°41'1110.7
2016-Jun-25 13:33N 55°55' E 012°37'10 9.7
2016-Jun-25 12:33N 56°05' E 012°35'1010.4
2016-Jun-25 11:33N 56°11' E 012°20'1111.1
2016-Jun-25 10:33N 56°18' E 012°04'1111.5
2016-Jun-25 09:33N 56°29' E 011°59'1211.7
2016-Jun-25 08:33N 56°40' E 011°55'1111.2
2016-Jun-25 07:33N 56°51' E 011°48'1111.4
2016-Jun-25 06:33N 57°02' E 011°42'1111.3
2016-Jun-25 05:33N 57°12' E 011°34'1010.3
2016-Jun-25 04:33N 57°22' E 011°28'1010.0
2016-Jun-25 03:33N 57°31' E 011°21'1010.2
2016-Jun-25 02:33N 57°40' E 011°11'1010.3
2016-Jun-25 01:33N 57°49' E 011°01'1010.2
2016-Jun-25 00:33N 57°58' E 010°52'1010.2
2016-Jun-24 23:33N 58°06' E 010°42'1010.4
2016-Jun-24 22:33N 58°16' E 010°33'1010.3
2016-Jun-24 21:33N 58°24' E 010°23'1010.2
2016-Jun-24 20:33N 58°33' E 010°14'1010.1
2016-Jun-24 19:32N 58°42' E 010°03'1010.6
2016-Jun-24 18:33N 58°51' E 009°53'1010.0
2016-Jun-24 17:33N 59°01' E 009°46'4 0.3
2016-Jun-24 03:22N 59°03' E 009°40'6 7.6
2016-Jun-24 02:33N 58°58' E 009°47'46 5.1
2016-Jun-23 17:29N 58°22' E 008°52'4 4.1
2016-Jun-23 16:33N 58°20' E 008°47'4 4.0
2016-Jun-23 15:33N 58°17' E 008°42'4 4.0
2016-Jun-23 14:33N 58°14' E 008°37'4 3.6
2016-Jun-23 13:33N 58°11' E 008°32'4 3.7
2016-Jun-23 12:33N 58°08' E 008°28'4 4.2
2016-Jun-23 11:33N 58°05' E 008°23'23 5.2
2016-Jun-23 07:07N 57°56' E 007°43'9 5.5
2016-Jun-23 05:32N 57°56' E 007°26'9 8.8
2016-Jun-23 04:33N 57°56' E 007°10'10 9.9
2016-Jun-23 03:33N 57°56' E 006°51'10 9.8
2016-Jun-23 02:33N 58°01' E 006°35'10 9.8
2016-Jun-23 01:32N 58°07' E 006°20'1010.0
2016-Jun-23 00:33N 58°13' E 006°05'1110.6
2016-Jun-22 23:33N 58°19' E 005°48'1010.5
2016-Jun-22 22:34N 58°28' E 005°40'1010.4
2016-Jun-22 21:33N 58°37' E 005°30'1010.1
2016-Jun-22 20:33N 58°46' E 005°22'9 8.7
2016-Jun-22 19:34N 58°53' E 005°31'9 9.4
2016-Jun-22 18:34N 59°03' E 005°35'1 1.4
2016-Jun-22 17:33N 59°01' E 005°37'0 0.0
2016-Jun-22 16:33N 59°01' E 005°37'0 0.0
2016-Jun-22 15:33N 59°01' E 005°37'0 0.0
2016-Jun-22 14:33N 59°01' E 005°37'0 0.0
2016-Jun-22 13:33N 59°01' E 005°37'0 0.0
2016-Jun-22 12:33N 59°01' E 005°37'0 0.0
2016-Jun-22 11:33N 59°01' E 005°37'0 0.0
2016-Jun-22 10:33N 59°01' E 005°37'0 0.0
2016-Jun-22 09:33N 59°01' E 005°37'0 0.0
2016-Jun-22 08:33N 59°01' E 005°37'0 0.0
2016-Jun-22 07:33N 59°01' E 005°37'0 0.0
2016-Jun-22 06:33N 59°01' E 005°37'0 0.0
2016-Jun-22 05:33N 59°01' E 005°37'0 0.0
2016-Jun-22 04:33N 59°01' E 005°37'0 0.0
2016-Jun-22 03:33N 59°01' E 005°37'0 0.0
2016-Jun-22 02:33N 59°01' E 005°37'0 0.0
2016-Jun-22 01:33N 59°01' E 005°37'0 0.0
2016-Jun-22 00:33N 59°01' E 005°37'0 0.0
2016-Jun-21 23:33N 59°01' E 005°37'0 0.0
2016-Jun-21 22:33N 59°01' E 005°37'0 0.0
2016-Jun-21 21:33N 59°01' E 005°37'0 0.0
2016-Jun-21 20:33N 59°01' E 005°37'0 0.0
2016-Jun-21 19:33N 59°01' E 005°37'0 0.0
2016-Jun-21 18:33N 59°01' E 005°37'0 0.0
2016-Jun-21 17:33N 59°01' E 005°37'0 0.0
2016-Jun-21 16:33N 59°01' E 005°37'0 0.0
2016-Jun-21 15:33N 59°01' E 005°37'  

Dump ship's entire track history